sensor_id;sensor_type;location;lat;lon;timestamp;P1;durP1;ratioP1;P2;durP2;ratioP2
78156;SDS011;67400;49.360;8.266;2023-04-12T00:00:58;6.25;;;2.22;;
78156;SDS011;67400;49.360;8.266;2023-04-12T00:02:18;7.85;;;3.08;;
78156;SDS011;67400;49.360;8.266;2023-04-12T00:03:37;8.00;;;2.88;;
78156;SDS011;67400;49.360;8.266;2023-04-12T00:04:57;9.15;;;3.05;;
78156;SDS011;67400;49.360;8.266;2023-04-12T00:06:20;7.07;;;2.70;;
78156;SDS011;67400;49.360;8.266;2023-04-12T00:07:45;9.10;;;3.00;;
78156;SDS011;67400;49.360;8.266;2023-04-12T00:09:04;6.13;;;2.55;;
78156;SDS011;67400;49.360;8.266;2023-04-12T00:10:26;4.95;;;2.10;;
78156;SDS011;67400;49.360;8.266;2023-04-12T00:11:45;7.05;;;2.25;;
78156;SDS011;67400;49.360;8.266;2023-04-12T00:13:05;5.72;;;2.13;;
78156;SDS011;67400;49.360;8.266;2023-04-12T00:14:26;8.23;;;2.50;;
78156;SDS011;67400;49.360;8.266;2023-04-12T00:15:45;7.55;;;2.92;;
78156;SDS011;67400;49.360;8.266;2023-04-12T00:17:05;9.73;;;2.78;;
78156;SDS011;67400;49.360;8.266;2023-04-12T00:18:24;9.70;;;2.28;;
78156;SDS011;67400;49.360;8.266;2023-04-12T00:19:45;11.50;;;2.95;;
78156;SDS011;67400;49.360;8.266;2023-04-12T00:21:05;5.35;;;2.47;;
78156;SDS011;67400;49.360;8.266;2023-04-12T00:22:24;10.23;;;2.40;;
78156;SDS011;67400;49.360;8.266;2023-04-12T00:23:47;10.25;;;3.13;;
78156;SDS011;67400;49.360;8.266;2023-04-12T00:25:07;5.35;;;2.10;;
78156;SDS011;67400;49.360;8.266;2023-04-12T00:26:27;9.25;;;2.30;;
78156;SDS011;67400;49.360;8.266;2023-04-12T00:27:46;6.40;;;2.45;;
78156;SDS011;67400;49.360;8.266;2023-04-12T00:29:06;7.40;;;2.28;;
78156;SDS011;67400;49.360;8.266;2023-04-12T00:30:26;9.30;;;2.45;;
78156;SDS011;67400;49.360;8.266;2023-04-12T00:31:45;8.18;;;3.05;;
78156;SDS011;67400;49.360;8.266;2023-04-12T00:33:05;6.22;;;2.60;;
78156;SDS011;67400;49.360;8.266;2023-04-12T00:34:24;4.25;;;2.40;;
78156;SDS011;67400;49.360;8.266;2023-04-12T00:35:45;7.85;;;2.83;;
78156;SDS011;67400;49.360;8.266;2023-04-12T00:37:07;7.93;;;2.88;;
78156;SDS011;67400;49.360;8.266;2023-04-12T00:38:27;6.97;;;2.97;;
78156;SDS011;67400;49.360;8.266;2023-04-12T00:39:47;7.55;;;2.78;;
78156;SDS011;67400;49.360;8.266;2023-04-12T00:41:07;4.45;;;2.63;;
78156;SDS011;67400;49.360;8.266;2023-04-12T00:42:27;5.47;;;2.42;;
78156;SDS011;67400;49.360;8.266;2023-04-12T00:43:46;4.70;;;2.40;;
78156;SDS011;67400;49.360;8.266;2023-04-12T00:45:07;6.63;;;2.67;;
78156;SDS011;67400;49.360;8.266;2023-04-12T00:46:28;4.55;;;2.40;;
78156;SDS011;67400;49.360;8.266;2023-04-12T00:47:48;10.63;;;2.65;;
78156;SDS011;67400;49.360;8.266;2023-04-12T00:49:08;7.00;;;2.40;;
78156;SDS011;67400;49.360;8.266;2023-04-12T00:50:30;7.00;;;2.40;;
78156;SDS011;67400;49.360;8.266;2023-04-12T00:51:50;8.20;;;2.70;;
78156;SDS011;67400;49.360;8.266;2023-04-12T00:53:11;8.85;;;2.45;;
78156;SDS011;67400;49.360;8.266;2023-04-12T00:54:32;7.88;;;2.20;;
78156;SDS011;67400;49.360;8.266;2023-04-12T00:55:52;8.27;;;2.65;;
78156;SDS011;67400;49.360;8.266;2023-04-12T00:57:14;13.82;;;2.67;;
78156;SDS011;67400;49.360;8.266;2023-04-12T00:58:34;5.63;;;2.03;;
78156;SDS011;67400;49.360;8.266;2023-04-12T00:59:53;8.45;;;2.45;;
78156;SDS011;67400;49.360;8.266;2023-04-12T01:01:13;7.32;;;2.70;;
78156;SDS011;67400;49.360;8.266;2023-04-12T01:02:34;6.88;;;2.55;;
78156;SDS011;67400;49.360;8.266;2023-04-12T01:03:57;5.03;;;2.47;;
78156;SDS011;67400;49.360;8.266;2023-04-12T01:05:21;4.85;;;2.20;;
78156;SDS011;67400;49.360;8.266;2023-04-12T01:06:54;7.22;;;2.40;;
78156;SDS011;67400;49.360;8.266;2023-04-12T01:08:27;6.70;;;2.55;;
78156;SDS011;67400;49.360;8.266;2023-04-12T01:09:56;5.75;;;2.40;;
78156;SDS011;67400;49.360;8.266;2023-04-12T01:11:31;4.70;;;2.20;;
78156;SDS011;67400;49.360;8.266;2023-04-12T01:14:36;11.88;;;2.97;;
78156;SDS011;67400;49.360;8.266;2023-04-12T01:16:00;6.07;;;2.10;;
78156;SDS011;67400;49.360;8.266;2023-04-12T01:17:24;8.18;;;2.15;;
78156;SDS011;67400;49.360;8.266;2023-04-12T01:18:45;7.60;;;2.40;;
78156;SDS011;67400;49.360;8.266;2023-04-12T01:20:18;5.68;;;2.00;;
78156;SDS011;67400;49.360;8.266;2023-04-12T01:21:53;7.35;;;2.58;;
78156;SDS011;67400;49.360;8.266;2023-04-12T01:26:08;8.63;;;2.28;;
78156;SDS011;67400;49.360;8.266;2023-04-12T01:27:44;7.05;;;2.22;;
78156;SDS011;67400;49.360;8.266;2023-04-12T01:29:08;9.60;;;2.67;;
78156;SDS011;67400;49.360;8.266;2023-04-12T01:30:28;5.75;;;2.05;;
78156;SDS011;67400;49.360;8.266;2023-04-12T01:31:50;5.28;;;2.50;;
78156;SDS011;67400;49.360;8.266;2023-04-12T01:33:11;9.02;;;2.40;;
78156;SDS011;67400;49.360;8.266;2023-04-12T01:34:32;4.88;;;2.50;;
78156;SDS011;67400;49.360;8.266;2023-04-12T01:35:51;6.55;;;2.75;;
78156;SDS011;67400;49.360;8.266;2023-04-12T01:37:12;4.90;;;1.98;;
78156;SDS011;67400;49.360;8.266;2023-04-12T01:38:34;13.02;;;2.65;;
78156;SDS011;67400;49.360;8.266;2023-04-12T01:39:53;7.40;;;2.25;;
78156;SDS011;67400;49.360;8.266;2023-04-12T01:41:13;4.53;;;2.38;;
78156;SDS011;67400;49.360;8.266;2023-04-12T01:42:33;5.57;;;2.53;;
78156;SDS011;67400;49.360;8.266;2023-04-12T01:43:53;6.25;;;2.60;;
78156;SDS011;67400;49.360;8.266;2023-04-12T01:45:14;7.70;;;2.47;;
78156;SDS011;67400;49.360;8.266;2023-04-12T01:46:34;7.97;;;2.58;;
78156;SDS011;67400;49.360;8.266;2023-04-12T01:47:55;9.55;;;3.15;;
78156;SDS011;67400;49.360;8.266;2023-04-12T01:49:15;5.38;;;2.75;;
78156;SDS011;67400;49.360;8.266;2023-04-12T01:52:16;7.43;;;2.20;;
78156;SDS011;67400;49.360;8.266;2023-04-12T01:53:44;11.10;;;2.63;;
78156;SDS011;67400;49.360;8.266;2023-04-12T01:55:07;5.00;;;2.00;;
78156;SDS011;67400;49.360;8.266;2023-04-12T01:56:29;4.30;;;2.20;;
78156;SDS011;67400;49.360;8.266;2023-04-12T01:57:49;5.55;;;2.30;;
78156;SDS011;67400;49.360;8.266;2023-04-12T01:59:09;4.90;;;2.13;;
78156;SDS011;67400;49.360;8.266;2023-04-12T02:00:29;8.10;;;2.50;;
78156;SDS011;67400;49.360;8.266;2023-04-12T02:01:51;5.45;;;1.75;;
78156;SDS011;67400;49.360;8.266;2023-04-12T02:03:10;9.80;;;2.25;;
78156;SDS011;67400;49.360;8.266;2023-04-12T02:04:30;6.55;;;1.98;;
78156;SDS011;67400;49.360;8.266;2023-04-12T02:05:51;4.75;;;1.65;;
78156;SDS011;67400;49.360;8.266;2023-04-12T02:07:12;5.78;;;2.08;;
78156;SDS011;67400;49.360;8.266;2023-04-12T02:08:34;8.10;;;2.05;;
78156;SDS011;67400;49.360;8.266;2023-04-12T02:09:53;6.60;;;3.05;;
78156;SDS011;67400;49.360;8.266;2023-04-12T02:11:13;8.55;;;2.28;;
78156;SDS011;67400;49.360;8.266;2023-04-12T02:12:36;6.35;;;2.10;;
78156;SDS011;67400;49.360;8.266;2023-04-12T02:13:56;5.47;;;2.03;;
78156;SDS011;67400;49.360;8.266;2023-04-12T02:15:16;4.38;;;2.08;;
78156;SDS011;67400;49.360;8.266;2023-04-12T02:16:35;6.05;;;2.42;;
78156;SDS011;67400;49.360;8.266;2023-04-12T02:17:57;5.63;;;1.85;;
78156;SDS011;67400;49.360;8.266;2023-04-12T02:19:17;8.55;;;2.33;;
78156;SDS011;67400;49.360;8.266;2023-04-12T02:20:36;4.72;;;2.25;;
78156;SDS011;67400;49.360;8.266;2023-04-12T02:21:56;5.70;;;2.28;;
78156;SDS011;67400;49.360;8.266;2023-04-12T02:23:15;6.25;;;2.10;;
78156;SDS011;67400;49.360;8.266;2023-04-12T02:24:36;5.70;;;2.20;;
78156;SDS011;67400;49.360;8.266;2023-04-12T02:25:55;5.78;;;2.05;;
78156;SDS011;67400;49.360;8.266;2023-04-12T02:27:15;6.30;;;2.15;;
78156;SDS011;67400;49.360;8.266;2023-04-12T02:28:36;5.35;;;2.08;;
78156;SDS011;67400;49.360;8.266;2023-04-12T02:29:57;7.35;;;2.00;;
78156;SDS011;67400;49.360;8.266;2023-04-12T02:31:17;6.18;;;2.25;;
78156;SDS011;67400;49.360;8.266;2023-04-12T02:32:39;7.93;;;2.40;;
78156;SDS011;67400;49.360;8.266;2023-04-12T02:34:04;5.00;;;2.30;;
78156;SDS011;67400;49.360;8.266;2023-04-12T02:35:25;6.32;;;2.30;;
78156;SDS011;67400;49.360;8.266;2023-04-12T02:36:51;5.13;;;2.10;;
78156;SDS011;67400;49.360;8.266;2023-04-12T02:38:11;5.72;;;2.17;;
78156;SDS011;67400;49.360;8.266;2023-04-12T02:39:33;10.35;;;2.60;;
78156;SDS011;67400;49.360;8.266;2023-04-12T02:40:53;6.72;;;2.25;;
78156;SDS011;67400;49.360;8.266;2023-04-12T02:42:14;5.35;;;2.33;;
78156;SDS011;67400;49.360;8.266;2023-04-12T02:43:34;8.20;;;2.42;;
78156;SDS011;67400;49.360;8.266;2023-04-12T02:44:59;5.47;;;2.28;;
78156;SDS011;67400;49.360;8.266;2023-04-12T02:46:21;8.55;;;2.33;;
78156;SDS011;67400;49.360;8.266;2023-04-12T02:47:46;3.22;;;1.85;;
78156;SDS011;67400;49.360;8.266;2023-04-12T02:49:06;5.45;;;1.98;;
78156;SDS011;67400;49.360;8.266;2023-04-12T02:50:31;8.77;;;3.60;;
78156;SDS011;67400;49.360;8.266;2023-04-12T02:52:00;9.93;;;2.10;;
78156;SDS011;67400;49.360;8.266;2023-04-12T02:53:27;4.68;;;1.92;;
78156;SDS011;67400;49.360;8.266;2023-04-12T02:55:01;7.85;;;2.10;;
78156;SDS011;67400;49.360;8.266;2023-04-12T02:56:22;7.38;;;2.13;;
78156;SDS011;67400;49.360;8.266;2023-04-12T02:57:47;7.45;;;2.70;;
78156;SDS011;67400;49.360;8.266;2023-04-12T02:59:08;6.80;;;2.45;;
78156;SDS011;67400;49.360;8.266;2023-04-12T03:00:47;7.38;;;2.50;;
78156;SDS011;67400;49.360;8.266;2023-04-12T03:02:11;10.18;;;4.00;;
78156;SDS011;67400;49.360;8.266;2023-04-12T03:03:30;8.60;;;2.75;;
78156;SDS011;67400;49.360;8.266;2023-04-12T03:04:55;6.28;;;2.72;;
78156;SDS011;67400;49.360;8.266;2023-04-12T03:06:23;10.48;;;2.55;;
78156;SDS011;67400;49.360;8.266;2023-04-12T03:07:43;5.40;;;2.67;;
78156;SDS011;67400;49.360;8.266;2023-04-12T03:09:04;5.47;;;2.83;;
78156;SDS011;67400;49.360;8.266;2023-04-12T03:10:24;5.80;;;2.35;;
78156;SDS011;67400;49.360;8.266;2023-04-12T03:11:53;3.35;;;2.20;;
78156;SDS011;67400;49.360;8.266;2023-04-12T03:13:14;7.72;;;2.60;;
78156;SDS011;67400;49.360;8.266;2023-04-12T03:14:38;4.45;;;2.22;;
78156;SDS011;67400;49.360;8.266;2023-04-12T03:15:59;5.75;;;3.58;;
78156;SDS011;67400;49.360;8.266;2023-04-12T03:17:37;5.40;;;2.38;;
78156;SDS011;67400;49.360;8.266;2023-04-12T03:18:57;11.20;;;3.40;;
78156;SDS011;67400;49.360;8.266;2023-04-12T03:20:19;8.15;;;3.15;;
78156;SDS011;67400;49.360;8.266;2023-04-12T03:21:48;7.43;;;2.70;;
78156;SDS011;67400;49.360;8.266;2023-04-12T03:23:08;10.15;;;3.15;;
78156;SDS011;67400;49.360;8.266;2023-04-12T03:24:32;8.02;;;2.72;;
78156;SDS011;67400;49.360;8.266;2023-04-12T03:25:53;8.13;;;3.13;;
78156;SDS011;67400;49.360;8.266;2023-04-12T03:27:22;9.75;;;3.13;;
78156;SDS011;67400;49.360;8.266;2023-04-12T03:28:44;7.00;;;2.97;;
78156;SDS011;67400;49.360;8.266;2023-04-12T03:30:05;6.13;;;3.15;;
78156;SDS011;67400;49.360;8.266;2023-04-12T03:31:27;10.18;;;2.70;;
78156;SDS011;67400;49.360;8.266;2023-04-12T03:32:50;5.25;;;2.90;;
78156;SDS011;67400;49.360;8.266;2023-04-12T03:34:10;10.52;;;3.58;;
78156;SDS011;67400;49.360;8.266;2023-04-12T03:35:35;6.90;;;3.13;;
78156;SDS011;67400;49.360;8.266;2023-04-12T03:36:54;11.63;;;3.83;;
78156;SDS011;67400;49.360;8.266;2023-04-12T03:38:34;5.55;;;3.45;;
78156;SDS011;67400;49.360;8.266;2023-04-12T03:39:55;7.35;;;3.72;;
78156;SDS011;67400;49.360;8.266;2023-04-12T03:41:17;7.72;;;3.38;;
78156;SDS011;67400;49.360;8.266;2023-04-12T03:42:37;7.03;;;3.38;;
78156;SDS011;67400;49.360;8.266;2023-04-12T03:44:03;6.60;;;3.38;;
78156;SDS011;67400;49.360;8.266;2023-04-12T03:45:25;11.25;;;3.60;;
78156;SDS011;67400;49.360;8.266;2023-04-12T03:46:47;7.05;;;3.75;;
78156;SDS011;67400;49.360;8.266;2023-04-12T03:48:08;12.32;;;3.72;;
78156;SDS011;67400;49.360;8.266;2023-04-12T03:49:34;8.95;;;3.58;;
78156;SDS011;67400;49.360;8.266;2023-04-12T03:50:56;15.57;;;5.50;;
78156;SDS011;67400;49.360;8.266;2023-04-12T03:52:20;50.72;;;21.95;;
78156;SDS011;67400;49.360;8.266;2023-04-12T03:53:40;32.55;;;13.32;;
78156;SDS011;67400;49.360;8.266;2023-04-12T03:55:03;19.55;;;8.70;;
78156;SDS011;67400;49.360;8.266;2023-04-12T03:56:25;10.57;;;5.38;;
78156;SDS011;67400;49.360;8.266;2023-04-12T03:57:47;11.07;;;4.30;;
78156;SDS011;67400;49.360;8.266;2023-04-12T03:59:07;13.48;;;4.95;;
78156;SDS011;67400;49.360;8.266;2023-04-12T04:00:27;8.77;;;3.90;;
78156;SDS011;67400;49.360;8.266;2023-04-12T04:02:07;8.30;;;3.67;;
78156;SDS011;67400;49.360;8.266;2023-04-12T04:03:32;8.75;;;3.50;;
78156;SDS011;67400;49.360;8.266;2023-04-12T04:05:06;8.30;;;3.80;;
78156;SDS011;67400;49.360;8.266;2023-04-12T04:06:26;7.38;;;3.17;;
78156;SDS011;67400;49.360;8.266;2023-04-12T04:07:48;8.45;;;3.08;;
78156;SDS011;67400;49.360;8.266;2023-04-12T04:09:09;6.25;;;3.10;;
78156;SDS011;67400;49.360;8.266;2023-04-12T04:10:30;11.50;;;3.80;;
78156;SDS011;67400;49.360;8.266;2023-04-12T04:11:50;11.55;;;3.92;;
78156;SDS011;67400;49.360;8.266;2023-04-12T04:13:12;7.45;;;3.97;;
78156;SDS011;67400;49.360;8.266;2023-04-12T04:14:32;8.07;;;3.75;;
78156;SDS011;67400;49.360;8.266;2023-04-12T04:16:01;6.95;;;3.38;;
78156;SDS011;67400;49.360;8.266;2023-04-12T04:17:22;8.30;;;3.67;;
78156;SDS011;67400;49.360;8.266;2023-04-12T04:18:42;9.93;;;3.75;;
78156;SDS011;67400;49.360;8.266;2023-04-12T04:20:04;7.97;;;3.05;;
78156;SDS011;67400;49.360;8.266;2023-04-12T04:21:28;7.45;;;3.53;;
78156;SDS011;67400;49.360;8.266;2023-04-12T04:22:50;10.93;;;4.10;;
78156;SDS011;67400;49.360;8.266;2023-04-12T04:24:12;8.73;;;3.42;;
78156;SDS011;67400;49.360;8.266;2023-04-12T04:25:38;9.38;;;3.35;;
78156;SDS011;67400;49.360;8.266;2023-04-12T04:27:00;9.43;;;3.60;;
78156;SDS011;67400;49.360;8.266;2023-04-12T04:28:20;12.27;;;4.57;;
78156;SDS011;67400;49.360;8.266;2023-04-12T04:29:40;10.18;;;4.38;;
78156;SDS011;67400;49.360;8.266;2023-04-12T04:31:06;8.63;;;3.92;;
78156;SDS011;67400;49.360;8.266;2023-04-12T04:32:29;9.48;;;3.63;;
78156;SDS011;67400;49.360;8.266;2023-04-12T04:33:50;8.20;;;3.08;;
78156;SDS011;67400;49.360;8.266;2023-04-12T04:35:13;9.15;;;3.53;;
78156;SDS011;67400;49.360;8.266;2023-04-12T04:36:59;7.97;;;3.00;;
78156;SDS011;67400;49.360;8.266;2023-04-12T04:38:19;9.48;;;4.00;;
78156;SDS011;67400;49.360;8.266;2023-04-12T04:39:44;8.25;;;3.83;;
78156;SDS011;67400;49.360;8.266;2023-04-12T04:41:05;8.27;;;3.65;;
78156;SDS011;67400;49.360;8.266;2023-04-12T04:42:39;12.60;;;3.85;;
78156;SDS011;67400;49.360;8.266;2023-04-12T04:44:01;10.05;;;3.67;;
78156;SDS011;67400;49.360;8.266;2023-04-12T04:45:23;13.02;;;4.60;;
78156;SDS011;67400;49.360;8.266;2023-04-12T04:46:44;7.13;;;3.63;;
78156;SDS011;67400;49.360;8.266;2023-04-12T04:48:06;8.77;;;3.95;;
78156;SDS011;67400;49.360;8.266;2023-04-12T04:49:26;10.48;;;3.55;;
78156;SDS011;67400;49.360;8.266;2023-04-12T04:50:49;7.85;;;3.45;;
78156;SDS011;67400;49.360;8.266;2023-04-12T04:52:11;9.48;;;3.08;;
78156;SDS011;67400;49.360;8.266;2023-04-12T04:53:31;7.72;;;2.47;;
78156;SDS011;67400;49.360;8.266;2023-04-12T04:54:52;6.35;;;2.78;;
78156;SDS011;67400;49.360;8.266;2023-04-12T04:56:16;7.95;;;2.92;;
78156;SDS011;67400;49.360;8.266;2023-04-12T04:57:39;4.25;;;2.45;;
78156;SDS011;67400;49.360;8.266;2023-04-12T04:58:58;5.60;;;2.50;;
78156;SDS011;67400;49.360;8.266;2023-04-12T05:00:21;10.15;;;2.88;;
78156;SDS011;67400;49.360;8.266;2023-04-12T05:01:47;4.57;;;2.50;;
78156;SDS011;67400;49.360;8.266;2023-04-12T05:03:09;8.77;;;2.33;;
78156;SDS011;67400;49.360;8.266;2023-04-12T05:04:29;8.18;;;2.28;;
78156;SDS011;67400;49.360;8.266;2023-04-12T05:05:49;4.72;;;2.40;;
78156;SDS011;67400;49.360;8.266;2023-04-12T05:07:09;5.38;;;2.10;;
78156;SDS011;67400;49.360;8.266;2023-04-12T05:08:31;8.88;;;3.35;;
78156;SDS011;67400;49.360;8.266;2023-04-12T05:09:52;11.15;;;3.75;;
78156;SDS011;67400;49.360;8.266;2023-04-12T05:11:12;11.10;;;4.03;;
78156;SDS011;67400;49.360;8.266;2023-04-12T05:12:32;9.68;;;3.83;;
78156;SDS011;67400;49.360;8.266;2023-04-12T05:13:52;12.30;;;2.95;;
78156;SDS011;67400;49.360;8.266;2023-04-12T05:15:12;9.77;;;3.60;;
78156;SDS011;67400;49.360;8.266;2023-04-12T05:16:33;10.38;;;3.78;;
78156;SDS011;67400;49.360;8.266;2023-04-12T05:17:53;10.40;;;3.95;;
78156;SDS011;67400;49.360;8.266;2023-04-12T05:19:13;12.98;;;4.50;;
78156;SDS011;67400;49.360;8.266;2023-04-12T05:20:32;16.13;;;4.10;;
78156;SDS011;67400;49.360;8.266;2023-04-12T05:21:52;10.02;;;3.88;;
78156;SDS011;67400;49.360;8.266;2023-04-12T05:23:11;8.95;;;3.85;;
78156;SDS011;67400;49.360;8.266;2023-04-12T05:24:31;9.48;;;4.00;;
78156;SDS011;67400;49.360;8.266;2023-04-12T05:25:51;8.75;;;3.38;;
78156;SDS011;67400;49.360;8.266;2023-04-12T05:27:14;8.18;;;3.53;;
78156;SDS011;67400;49.360;8.266;2023-04-12T05:28:36;12.45;;;3.53;;
78156;SDS011;67400;49.360;8.266;2023-04-12T05:29:56;19.52;;;4.95;;
78156;SDS011;67400;49.360;8.266;2023-04-12T05:31:18;14.57;;;4.68;;
78156;SDS011;67400;49.360;8.266;2023-04-12T05:32:37;14.15;;;4.65;;
78156;SDS011;67400;49.360;8.266;2023-04-12T05:33:57;16.95;;;4.53;;
78156;SDS011;67400;49.360;8.266;2023-04-12T05:35:22;6.63;;;3.13;;
78156;SDS011;67400;49.360;8.266;2023-04-12T05:36:48;7.03;;;2.88;;
78156;SDS011;67400;49.360;8.266;2023-04-12T05:38:08;15.65;;;3.63;;
78156;SDS011;67400;49.360;8.266;2023-04-12T05:39:28;10.43;;;3.25;;
78156;SDS011;67400;49.360;8.266;2023-04-12T05:40:48;17.05;;;4.63;;
78156;SDS011;67400;49.360;8.266;2023-04-12T05:42:13;8.30;;;2.78;;
78156;SDS011;67400;49.360;8.266;2023-04-12T05:43:33;7.63;;;2.85;;
78156;SDS011;67400;49.360;8.266;2023-04-12T05:44:55;8.65;;;2.83;;
78156;SDS011;67400;49.360;8.266;2023-04-12T05:46:15;12.90;;;3.75;;
78156;SDS011;67400;49.360;8.266;2023-04-12T05:47:40;10.90;;;3.70;;
78156;SDS011;67400;49.360;8.266;2023-04-12T05:48:59;12.80;;;3.60;;
78156;SDS011;67400;49.360;8.266;2023-04-12T05:50:20;9.77;;;2.80;;
78156;SDS011;67400;49.360;8.266;2023-04-12T05:51:40;4.05;;;2.55;;
78156;SDS011;67400;49.360;8.266;2023-04-12T05:53:03;6.30;;;3.05;;
78156;SDS011;67400;49.360;8.266;2023-04-12T05:54:24;6.43;;;2.45;;
78156;SDS011;67400;49.360;8.266;2023-04-12T05:55:46;8.10;;;2.70;;
78156;SDS011;67400;49.360;8.266;2023-04-12T05:57:09;7.72;;;3.28;;
78156;SDS011;67400;49.360;8.266;2023-04-12T05:58:30;7.90;;;3.47;;
78156;SDS011;67400;49.360;8.266;2023-04-12T05:59:50;10.10;;;3.15;;
78156;SDS011;67400;49.360;8.266;2023-04-12T06:01:10;9.63;;;3.33;;
78156;SDS011;67400;49.360;8.266;2023-04-12T06:02:30;8.60;;;3.42;;
78156;SDS011;67400;49.360;8.266;2023-04-12T06:03:50;18.60;;;4.65;;
78156;SDS011;67400;49.360;8.266;2023-04-12T06:05:10;7.78;;;3.40;;
78156;SDS011;67400;49.360;8.266;2023-04-12T06:06:30;12.18;;;4.40;;
78156;SDS011;67400;49.360;8.266;2023-04-12T06:07:51;8.00;;;3.03;;
78156;SDS011;67400;49.360;8.266;2023-04-12T06:09:11;8.48;;;3.53;;
78156;SDS011;67400;49.360;8.266;2023-04-12T06:10:32;10.40;;;3.50;;
78156;SDS011;67400;49.360;8.266;2023-04-12T06:11:52;13.93;;;4.68;;
78156;SDS011;67400;49.360;8.266;2023-04-12T06:13:12;17.00;;;4.40;;
78156;SDS011;67400;49.360;8.266;2023-04-12T06:14:34;12.48;;;4.47;;
78156;SDS011;67400;49.360;8.266;2023-04-12T06:15:54;10.15;;;3.90;;
78156;SDS011;67400;49.360;8.266;2023-04-12T06:17:14;17.63;;;4.15;;
78156;SDS011;67400;49.360;8.266;2023-04-12T06:18:34;11.23;;;3.30;;
78156;SDS011;67400;49.360;8.266;2023-04-12T06:19:53;9.52;;;3.50;;
78156;SDS011;67400;49.360;8.266;2023-04-12T06:21:13;6.55;;;2.88;;
78156;SDS011;67400;49.360;8.266;2023-04-12T06:22:34;6.63;;;2.50;;
78156;SDS011;67400;49.360;8.266;2023-04-12T06:23:54;6.55;;;3.08;;
78156;SDS011;67400;49.360;8.266;2023-04-12T06:25:14;4.07;;;2.42;;
78156;SDS011;67400;49.360;8.266;2023-04-12T06:26:36;4.57;;;2.00;;
78156;SDS011;67400;49.360;8.266;2023-04-12T06:27:56;4.78;;;2.25;;
78156;SDS011;67400;49.360;8.266;2023-04-12T06:29:18;3.05;;;2.10;;
78156;SDS011;67400;49.360;8.266;2023-04-12T06:30:38;8.82;;;2.55;;
78156;SDS011;67400;49.360;8.266;2023-04-12T06:31:59;4.45;;;2.40;;
78156;SDS011;67400;49.360;8.266;2023-04-12T06:33:19;4.35;;;2.20;;
78156;SDS011;67400;49.360;8.266;2023-04-12T06:34:40;4.95;;;2.45;;
78156;SDS011;67400;49.360;8.266;2023-04-12T06:36:05;5.07;;;2.45;;
78156;SDS011;67400;49.360;8.266;2023-04-12T06:37:24;9.25;;;2.78;;
78156;SDS011;67400;49.360;8.266;2023-04-12T06:38:44;7.03;;;2.78;;
78156;SDS011;67400;49.360;8.266;2023-04-12T06:40:04;4.07;;;2.60;;
78156;SDS011;67400;49.360;8.266;2023-04-12T06:41:24;4.82;;;2.00;;
78156;SDS011;67400;49.360;8.266;2023-04-12T06:42:51;6.65;;;2.13;;
78156;SDS011;67400;49.360;8.266;2023-04-12T06:44:14;4.82;;;2.47;;
78156;SDS011;67400;49.360;8.266;2023-04-12T06:45:34;5.63;;;2.42;;
78156;SDS011;67400;49.360;8.266;2023-04-12T06:46:53;5.88;;;2.33;;
78156;SDS011;67400;49.360;8.266;2023-04-12T06:48:13;4.85;;;2.67;;
78156;SDS011;67400;49.360;8.266;2023-04-12T06:49:33;5.72;;;2.90;;
78156;SDS011;67400;49.360;8.266;2023-04-12T06:50:52;6.95;;;2.53;;
78156;SDS011;67400;49.360;8.266;2023-04-12T06:52:12;4.05;;;2.20;;
78156;SDS011;67400;49.360;8.266;2023-04-12T06:53:31;4.05;;;2.30;;
78156;SDS011;67400;49.360;8.266;2023-04-12T06:54:53;4.35;;;2.50;;
78156;SDS011;67400;49.360;8.266;2023-04-12T06:56:13;7.55;;;2.53;;
78156;SDS011;67400;49.360;8.266;2023-04-12T06:57:33;5.18;;;2.58;;
78156;SDS011;67400;49.360;8.266;2023-04-12T06:58:52;7.68;;;2.55;;
78156;SDS011;67400;49.360;8.266;2023-04-12T07:00:12;4.28;;;2.33;;
78156;SDS011;67400;49.360;8.266;2023-04-12T07:01:32;6.03;;;2.40;;
78156;SDS011;67400;49.360;8.266;2023-04-12T07:02:51;5.18;;;3.10;;
78156;SDS011;67400;49.360;8.266;2023-04-12T07:04:11;12.75;;;4.30;;
78156;SDS011;67400;49.360;8.266;2023-04-12T07:05:30;16.95;;;5.68;;
78156;SDS011;67400;49.360;8.266;2023-04-12T07:06:50;9.93;;;4.07;;
78156;SDS011;67400;49.360;8.266;2023-04-12T07:08:09;4.53;;;2.38;;
78156;SDS011;67400;49.360;8.266;2023-04-12T07:09:29;5.18;;;2.83;;
78156;SDS011;67400;49.360;8.266;2023-04-12T07:10:53;8.85;;;3.58;;
78156;SDS011;67400;49.360;8.266;2023-04-12T07:12:12;7.95;;;3.03;;
78156;SDS011;67400;49.360;8.266;2023-04-12T07:13:31;6.70;;;2.90;;
78156;SDS011;67400;49.360;8.266;2023-04-12T07:14:51;11.52;;;3.33;;
78156;SDS011;67400;49.360;8.266;2023-04-12T07:16:10;7.78;;;3.40;;
78156;SDS011;67400;49.360;8.266;2023-04-12T07:17:30;8.15;;;3.55;;
78156;SDS011;67400;49.360;8.266;2023-04-12T07:18:50;7.57;;;3.22;;
78156;SDS011;67400;49.360;8.266;2023-04-12T07:20:09;6.25;;;2.40;;
78156;SDS011;67400;49.360;8.266;2023-04-12T07:21:29;6.25;;;2.55;;
78156;SDS011;67400;49.360;8.266;2023-04-12T07:22:49;6.43;;;2.75;;
78156;SDS011;67400;49.360;8.266;2023-04-12T07:24:09;5.22;;;2.45;;
78156;SDS011;67400;49.360;8.266;2023-04-12T07:25:30;4.90;;;2.50;;
78156;SDS011;67400;49.360;8.266;2023-04-12T07:26:51;4.88;;;2.40;;
78156;SDS011;67400;49.360;8.266;2023-04-12T07:28:12;3.35;;;2.10;;
78156;SDS011;67400;49.360;8.266;2023-04-12T07:29:32;5.18;;;2.85;;
78156;SDS011;67400;49.360;8.266;2023-04-12T07:30:52;5.35;;;2.10;;
78156;SDS011;67400;49.360;8.266;2023-04-12T07:32:11;5.57;;;2.20;;
78156;SDS011;67400;49.360;8.266;2023-04-12T07:33:31;4.32;;;2.13;;
78156;SDS011;67400;49.360;8.266;2023-04-12T07:34:52;9.23;;;2.83;;
78156;SDS011;67400;49.360;8.266;2023-04-12T07:36:12;5.60;;;2.55;;
78156;SDS011;67400;49.360;8.266;2023-04-12T07:37:34;5.78;;;2.58;;
78156;SDS011;67400;49.360;8.266;2023-04-12T07:38:54;6.05;;;2.63;;
78156;SDS011;67400;49.360;8.266;2023-04-12T07:40:14;5.65;;;2.58;;
78156;SDS011;67400;49.360;8.266;2023-04-12T07:41:33;3.58;;;2.53;;
78156;SDS011;67400;49.360;8.266;2023-04-12T07:42:53;4.60;;;2.58;;
78156;SDS011;67400;49.360;8.266;2023-04-12T07:44:12;6.90;;;2.30;;
78156;SDS011;67400;49.360;8.266;2023-04-12T07:45:34;5.18;;;2.70;;
78156;SDS011;67400;49.360;8.266;2023-04-12T07:46:54;4.70;;;2.70;;
78156;SDS011;67400;49.360;8.266;2023-04-12T07:48:14;6.22;;;3.10;;
78156;SDS011;67400;49.360;8.266;2023-04-12T07:49:34;6.70;;;2.90;;
78156;SDS011;67400;49.360;8.266;2023-04-12T07:50:53;7.88;;;3.65;;
78156;SDS011;67400;49.360;8.266;2023-04-12T07:52:13;5.07;;;2.35;;
78156;SDS011;67400;49.360;8.266;2023-04-12T07:53:33;6.80;;;2.50;;
78156;SDS011;67400;49.360;8.266;2023-04-12T07:54:52;5.18;;;3.05;;
78156;SDS011;67400;49.360;8.266;2023-04-12T07:56:12;8.73;;;3.00;;
78156;SDS011;67400;49.360;8.266;2023-04-12T07:57:32;5.40;;;2.67;;
78156;SDS011;67400;49.360;8.266;2023-04-12T07:58:52;5.40;;;2.53;;
78156;SDS011;67400;49.360;8.266;2023-04-12T08:00:11;8.70;;;2.70;;
78156;SDS011;67400;49.360;8.266;2023-04-12T08:01:35;6.30;;;2.75;;
78156;SDS011;67400;49.360;8.266;2023-04-12T08:02:54;5.18;;;2.55;;
78156;SDS011;67400;49.360;8.266;2023-04-12T08:04:14;7.70;;;2.78;;
78156;SDS011;67400;49.360;8.266;2023-04-12T08:05:34;3.55;;;2.45;;
78156;SDS011;67400;49.360;8.266;2023-04-12T08:06:54;4.95;;;2.95;;
78156;SDS011;67400;49.360;8.266;2023-04-12T08:08:13;3.55;;;2.45;;
78156;SDS011;67400;49.360;8.266;2023-04-12T08:09:33;5.55;;;2.55;;
78156;SDS011;67400;49.360;8.266;2023-04-12T08:10:53;5.38;;;2.50;;
78156;SDS011;67400;49.360;8.266;2023-04-12T08:12:13;4.40;;;2.33;;
78156;SDS011;67400;49.360;8.266;2023-04-12T08:13:33;5.53;;;2.50;;
78156;SDS011;67400;49.360;8.266;2023-04-12T08:14:53;5.53;;;2.25;;
78156;SDS011;67400;49.360;8.266;2023-04-12T08:16:12;5.78;;;2.50;;
78156;SDS011;67400;49.360;8.266;2023-04-12T08:17:32;6.00;;;3.13;;